Barbarossa — IBJD — position and weather

sailwx.info

Track history (hours):
 
Tides and Currents Weather Stations Pressure Air Temp Water Temp Dewpoint Dewpoint Depression Visibility Wind Speed Wind Dir Waves Ship Positions

Barbarossa

Last reported at 2017-Dec-07 19:13 UTC. Time now 2017-Dec-14 17:19 UTC.
Position N 28°03' W 016°19'.

Length 294 m; draft 8.1 m.

Type: Passenger vessel. MMSI: 247282900.

Date/timePositionNaut miles runAvg speedWind from/ knotsBaromVisibWave heightAir tempDewpointWater temp
2017-Dec-07 19:13N 28°03' W 016°19'418.6
2017-Dec-07 19:00N 28°07' W 016°16'918.8
2017-Dec-07 18:30N 28°13' W 016°08'816.5
2017-Dec-07 18:00N 28°21' W 016°05'917.1
2017-Dec-07 17:30N 28°27' W 016°12'3 6.2
2017-Dec-07 17:00N 28°29' W 016°14'0 0.0
2017-Dec-07 16:30N 28°29' W 016°14'0 0.0
2017-Dec-07 16:00N 28°29' W 016°14'0 0.0
2017-Dec-07 15:30N 28°29' W 016°14'0 0.0
2017-Dec-07 13:36N 28°29' W 016°14'0 0.0
2017-Dec-07 13:28N 28°29' W 016°14'0 0.0
2017-Dec-07 13:00N 28°29' W 016°14'0 0.0
2017-Dec-07 12:30N 28°29' W 016°14'0 0.0
2017-Dec-07 11:57N 28°29' W 016°14'0 0.0
2017-Dec-07 11:30N 28°29' W 016°14'0 0.0
2017-Dec-07 10:59N 28°29' W 016°14'0 0.0
2017-Dec-07 10:26N 28°29' W 016°14'0 0.0
2017-Dec-07 09:56N 28°29' W 016°14'0 0.0
2017-Dec-07 09:23N 28°29' W 016°14'0 0.0
2017-Dec-07 08:21N 28°29' W 016°14'0 0.0
2017-Dec-07 07:41N 28°29' W 016°14'0 0.1
2017-Dec-07 07:30N 28°29' W 016°14'1 2.3
2017-Dec-07 06:54N 28°28' W 016°13'3 8.4
2017-Dec-07 06:30N 28°27' W 016°09'612.1
2017-Dec-07 06:00N 28°26' W 016°03'713.5
2017-Dec-07 05:30N 28°27' W 015°55'714.3
2017-Dec-07 05:00N 28°33' W 015°50'714.5
2017-Dec-07 04:30N 28°38' W 015°44'714.8
2017-Dec-07 04:00N 28°42' W 015°37'714.2
2017-Dec-07 03:30N 28°43' W 015°29'714.3
2017-Dec-07 03:00N 28°44' W 015°21'714.3
2017-Dec-07 02:30N 28°44' W 015°12'714.1
2017-Dec-07 02:00N 28°45' W 015°04'714.2
2017-Dec-07 01:30N 28°45' W 014°56'814.1
2017-Dec-07 00:58N 28°46' W 014°48'1214.4
2017-Dec-07 00:08N 28°47' W 014°34'  
2017-Dec-03 18:57N 37°16' W 001°00'819.2
2017-Dec-03 18:30N 37°21' W 000°52'1019.2
2017-Dec-03 18:00N 37°28' W 000°43'919.0
2017-Dec-03 17:30N 37°34' W 000°34'918.7
2017-Dec-03 17:00N 37°41' W 000°28'1018.7
2017-Dec-03 16:29N 37°49' W 000°21'918.7
2017-Dec-03 16:00N 37°57' W 000°15'38116.9
2017-Dec-02 17:26N 43°04' E 004°42'715.3
2017-Dec-02 17:00N 43°06' E 004°50'815.3
2017-Dec-02 16:31N 43°08' E 005°00'814.9
2017-Dec-02 15:59N 43°14' E 005°08'714.9
2017-Dec-02 15:30N 43°19' E 005°15'4 8.5
2017-Dec-02 15:00N 43°21' E 005°20'0 0.0
2017-Dec-02 14:11N 43°21' E 005°20'0 0.0
2017-Dec-02 13:59N 43°21' E 005°20'0 0.0
2017-Dec-02 13:20N 43°21' E 005°20'0 0.0
2017-Dec-02 12:59N 43°21' E 005°20'0 0.0
2017-Dec-02 12:23N 43°21' E 005°20'0 0.0
2017-Dec-02 11:56N 43°21' E 005°20'0 0.0
2017-Dec-02 11:29N 43°21' E 005°20'0 0.0
2017-Dec-02 09:56N 43°21' E 005°20'0 0.0
2017-Dec-02 09:29N 43°21' E 005°20'0 0.0
2017-Dec-02 08:47N 43°21' E 005°20'0 0.0
2017-Dec-02 08:26N 43°21' E 005°20'0 0.0
2017-Dec-02 07:56N 43°21' E 005°20'0 0.0
2017-Dec-02 07:30N 43°21' E 005°20'0 0.4
2017-Dec-02 07:00N 43°21' E 005°20'3 5.4
2017-Dec-02 06:30N 43°20' E 005°16'611.4
2017-Dec-02 06:00N 43°16' E 005°11'8112.4
2017-Dec-01 23:28N 43°04' E 007°00'714.4
2017-Dec-01 23:00N 43°08' E 007°07'714.3
2017-Dec-01 22:30N 43°12' E 007°15'713.9
2017-Dec-01 22:00N 43°17' E 007°22'714.0
2017-Dec-01 21:31N 43°21' E 007°30'814.6
2017-Dec-01 21:00N 43°26' E 007°38'3414.7
2017-Dec-01 18:40N 43°50' E 008°12'516.7
2017-Dec-01 18:23N 43°53' E 008°17'816.5
2017-Dec-01 17:54N 43°60' E 008°22'716.5
2017-Dec-01 17:30N 44°06' E 008°27'816.3
2017-Dec-01 17:00N 44°13' E 008°32'612.2
2017-Dec-01 16:30N 44°19' E 008°31'1 2.2
2017-Dec-01 15:58N 44°19' E 008°29'0 0.0
2017-Dec-01 15:25N 44°19' E 008°29'0 0.0
2017-Dec-01 14:55N 44°19' E 008°29'0 0.0
2017-Dec-01 14:28N 44°19' E 008°29'0 0.0
2017-Dec-01 13:52N 44°19' E 008°29'0 0.0
2017-Dec-01 13:28N 44°19' E 008°29'0 0.0
2017-Dec-01 12:55N 44°19' E 008°29'0 0.0
2017-Dec-01 12:28N 44°19' E 008°29'0 0.0
2017-Dec-01 11:58N 44°19' E 008°29'0 0.0
2017-Dec-01 11:25N 44°19' E 008°29'0 0.0
2017-Dec-01 10:58N 44°19' E 008°29'0 0.0
2017-Dec-01 10:28N 44°19' E 008°29'0 0.0
2017-Dec-01 09:58N 44°19' E 008°29'0 0.0
2017-Dec-01 09:28N 44°19' E 008°29'0 0.0
2017-Dec-01 08:58N 44°19' E 008°29'0 0.0
2017-Dec-01 08:28N 44°19' E 008°29'0 0.0
2017-Dec-01 07:58N 44°19' E 008°29'0 0.0
2017-Dec-01 07:28N 44°19' E 008°29'0 0.0
2017-Dec-01 06:58N 44°19' E 008°29'0 0.0
2017-Dec-01 06:30N 44°19' E 008°29'1 1.7
2017-Dec-01 06:00N 44°19' E 008°30'5 9.0
2017-Dec-01 05:30N 44°16' E 008°35'714.4
2017-Dec-01 05:00N 44°10' E 008°40'815.4
2017-Dec-01 04:30N 44°04' E 008°46'815.8
2017-Dec-01 04:00N 43°57' E 008°53'816.5
2017-Dec-01 03:30N 43°51' E 008°59'816.3
2017-Dec-01 03:00N 43°44' E 009°06'816.7
2017-Dec-01 02:30N 43°37' E 009°13'918.1
2017-Dec-01 02:00N 43°30' E 009°20'917.5
2017-Dec-01 01:30N 43°23' E 009°27'918.0
2017-Dec-01 01:00N 43°15' E 009°32'918.3
2017-Dec-01 00:30N 43°06' E 009°36'918.3
2017-Dec-01 00:00N 42°57' E 009°40'1217.3
2017-Nov-30 23:20N 42°47' E 009°47'1718.1
2017-Nov-30 22:24N 42°40' E 010°08'718.2
2017-Nov-30 22:00N 42°35' E 010°15'1018.3
2017-Nov-30 21:27N 42°28' E 010°25'1318.4
2017-Nov-30 20:45N 42°18' E 010°37'29110.0
2017-Nov-29 15:39N 38°57' E 015°13'418.3
2017-Nov-29 15:27N 38°55' E 015°17'818.1
2017-Nov-29 15:00N 38°49' E 015°23'918.2
2017-Nov-29 14:30N 38°40' E 015°29'1718.0
2017-Nov-29 13:34N 38°26' E 015°39'717.9
2017-Nov-29 13:09N 38°19' E 015°43'317.8
2017-Nov-29 12:59N 38°16' E 015°42'715.2
2017-Nov-29 12:30N 38°12' E 015°34'1 1.6
2017-Nov-29 11:57N 38°12' E 015°33'0 0.0
2017-Nov-29 11:28N 38°12' E 015°33'0 0.0
2017-Nov-29 10:59N 38°12' E 015°33'0 0.0
2017-Nov-29 10:29N 38°12' E 015°33'0 0.0
2017-Nov-29 09:53N 38°12' E 015°33'0 0.0
2017-Nov-29 09:29N 38°12' E 015°33'0 0.0
2017-Nov-29 08:59N 38°12' E 015°33'0 0.0
2017-Nov-29 08:29N 38°12' E 015°33'0 0.0
2017-Nov-29 07:59N 38°12' E 015°33'0 0.0
2017-Nov-29 07:29N 38°12' E 015°33'0 0.0
2017-Nov-29 07:00N 38°12' E 015°33'0 0.0
2017-Nov-29 06:30N 38°12' E 015°33'0 0.0
2017-Nov-29 06:00N 38°12' E 015°33'  
Track history (hours):
 
Tides and Currents Weather Stations Pressure Air Temp Water Temp Dewpoint Dewpoint Depression Visibility Wind Speed Wind Dir Waves Ship Positions

Barbarossa

Last reported at 2017-Dec-07 19:13 UTC. Time now 2017-Dec-14 17:19 UTC.
Position N 28°03' W 016°19'.

Length 294 m; draft 8.1 m.

Type: Passenger vessel. MMSI: 247282900.

Date/timePositionNaut miles runAvg speedWind from/ knotsBaromVisibWave heightAir tempDewpointWater temp
2017-Dec-07 19:13N 28°03' W 016°19'418.6
2017-Dec-07 19:00N 28°07' W 016°16'918.8
2017-Dec-07 18:30N 28°13' W 016°08'816.5
2017-Dec-07 18:00N 28°21' W 016°05'917.1
2017-Dec-07 17:30N 28°27' W 016°12'3 6.2
2017-Dec-07 17:00N 28°29' W 016°14'0 0.0
2017-Dec-07 16:30N 28°29' W 016°14'0 0.0
2017-Dec-07 16:00N 28°29' W 016°14'0 0.0
2017-Dec-07 15:30N 28°29' W 016°14'0 0.0
2017-Dec-07 13:36N 28°29' W 016°14'0 0.0
2017-Dec-07 13:28N 28°29' W 016°14'0 0.0
2017-Dec-07 13:00N 28°29' W 016°14'0 0.0
2017-Dec-07 12:30N 28°29' W 016°14'0 0.0
2017-Dec-07 11:57N 28°29' W 016°14'0 0.0
2017-Dec-07 11:30N 28°29' W 016°14'0 0.0
2017-Dec-07 10:59N 28°29' W 016°14'0 0.0
2017-Dec-07 10:26N 28°29' W 016°14'0 0.0
2017-Dec-07 09:56N 28°29' W 016°14'0 0.0
2017-Dec-07 09:23N 28°29' W 016°14'0 0.0
2017-Dec-07 08:21N 28°29' W 016°14'0 0.0
2017-Dec-07 07:41N 28°29' W 016°14'0 0.1
2017-Dec-07 07:30N 28°29' W 016°14'1 2.3
2017-Dec-07 06:54N 28°28' W 016°13'3 8.4
2017-Dec-07 06:30N 28°27' W 016°09'612.1
2017-Dec-07 06:00N 28°26' W 016°03'713.5
2017-Dec-07 05:30N 28°27' W 015°55'714.3
2017-Dec-07 05:00N 28°33' W 015°50'714.5
2017-Dec-07 04:30N 28°38' W 015°44'714.8
2017-Dec-07 04:00N 28°42' W 015°37'714.2
2017-Dec-07 03:30N 28°43' W 015°29'714.3
2017-Dec-07 03:00N 28°44' W 015°21'714.3
2017-Dec-07 02:30N 28°44' W 015°12'714.1
2017-Dec-07 02:00N 28°45' W 015°04'714.2
2017-Dec-07 01:30N 28°45' W 014°56'814.1
2017-Dec-07 00:58N 28°46' W 014°48'1214.4
2017-Dec-07 00:08N 28°47' W 014°34'  
2017-Dec-03 18:57N 37°16' W 001°00'819.2
2017-Dec-03 18:30N 37°21' W 000°52'1019.2
2017-Dec-03 18:00N 37°28' W 000°43'919.0
2017-Dec-03 17:30N 37°34' W 000°34'918.7
2017-Dec-03 17:00N 37°41' W 000°28'1018.7
2017-Dec-03 16:29N 37°49' W 000°21'918.7
2017-Dec-03 16:00N 37°57' W 000°15'38116.9
2017-Dec-02 17:26N 43°04' E 004°42'715.3
2017-Dec-02 17:00N 43°06' E 004°50'815.3
2017-Dec-02 16:31N 43°08' E 005°00'814.9
2017-Dec-02 15:59N 43°14' E 005°08'714.9
2017-Dec-02 15:30N 43°19' E 005°15'4 8.5
2017-Dec-02 15:00N 43°21' E 005°20'0 0.0
2017-Dec-02 14:11N 43°21' E 005°20'0 0.0
2017-Dec-02 13:59N 43°21' E 005°20'0 0.0
2017-Dec-02 13:20N 43°21' E 005°20'0 0.0
2017-Dec-02 12:59N 43°21' E 005°20'0 0.0
2017-Dec-02 12:23N 43°21' E 005°20'0 0.0
2017-Dec-02 11:56N 43°21' E 005°20'0 0.0
2017-Dec-02 11:29N 43°21' E 005°20'0 0.0
2017-Dec-02 09:56N 43°21' E 005°20'0 0.0
2017-Dec-02 09:29N 43°21' E 005°20'0 0.0
2017-Dec-02 08:47N 43°21' E 005°20'0 0.0
2017-Dec-02 08:26N 43°21' E 005°20'0 0.0
2017-Dec-02 07:56N 43°21' E 005°20'0 0.0
2017-Dec-02 07:30N 43°21' E 005°20'0 0.4
2017-Dec-02 07:00N 43°21' E 005°20'3 5.4
2017-Dec-02 06:30N 43°20' E 005°16'611.4
2017-Dec-02 06:00N 43°16' E 005°11'8112.4
2017-Dec-01 23:28N 43°04' E 007°00'714.4
2017-Dec-01 23:00N 43°08' E 007°07'714.3
2017-Dec-01 22:30N 43°12' E 007°15'713.9
2017-Dec-01 22:00N 43°17' E 007°22'714.0
2017-Dec-01 21:31N 43°21' E 007°30'814.6
2017-Dec-01 21:00N 43°26' E 007°38'3414.7
2017-Dec-01 18:40N 43°50' E 008°12'516.7
2017-Dec-01 18:23N 43°53' E 008°17'816.5
2017-Dec-01 17:54N 43°60' E 008°22'716.5
2017-Dec-01 17:30N 44°06' E 008°27'816.3
2017-Dec-01 17:00N 44°13' E 008°32'612.2
2017-Dec-01 16:30N 44°19' E 008°31'1 2.2
2017-Dec-01 15:58N 44°19' E 008°29'0 0.0
2017-Dec-01 15:25N 44°19' E 008°29'0 0.0
2017-Dec-01 14:55N 44°19' E 008°29'0 0.0
2017-Dec-01 14:28N 44°19' E 008°29'0 0.0
2017-Dec-01 13:52N 44°19' E 008°29'0 0.0
2017-Dec-01 13:28N 44°19' E 008°29'0 0.0
2017-Dec-01 12:55N 44°19' E 008°29'0 0.0
2017-Dec-01 12:28N 44°19' E 008°29'0 0.0
2017-Dec-01 11:58N 44°19' E 008°29'0 0.0
2017-Dec-01 11:25N 44°19' E 008°29'0 0.0
2017-Dec-01 10:58N 44°19' E 008°29'0 0.0
2017-Dec-01 10:28N 44°19' E 008°29'0 0.0
2017-Dec-01 09:58N 44°19' E 008°29'0 0.0
2017-Dec-01 09:28N 44°19' E 008°29'0 0.0
2017-Dec-01 08:58N 44°19' E 008°29'0 0.0
2017-Dec-01 08:28N 44°19' E 008°29'0 0.0
2017-Dec-01 07:58N 44°19' E 008°29'0 0.0
2017-Dec-01 07:28N 44°19' E 008°29'0 0.0
2017-Dec-01 06:58N 44°19' E 008°29'0 0.0
2017-Dec-01 06:30N 44°19' E 008°29'1 1.7
2017-Dec-01 06:00N 44°19' E 008°30'5 9.0
2017-Dec-01 05:30N 44°16' E 008°35'714.4
2017-Dec-01 05:00N 44°10' E 008°40'815.4
2017-Dec-01 04:30N 44°04' E 008°46'815.8
2017-Dec-01 04:00N 43°57' E 008°53'816.5
2017-Dec-01 03:30N 43°51' E 008°59'816.3
2017-Dec-01 03:00N 43°44' E 009°06'816.7
2017-Dec-01 02:30N 43°37' E 009°13'918.1
2017-Dec-01 02:00N 43°30' E 009°20'917.5
2017-Dec-01 01:30N 43°23' E 009°27'918.0
2017-Dec-01 01:00N 43°15' E 009°32'918.3
2017-Dec-01 00:30N 43°06' E 009°36'918.3
2017-Dec-01 00:00N 42°57' E 009°40'1217.3
2017-Nov-30 23:20N 42°47' E 009°47'1718.1
2017-Nov-30 22:24N 42°40' E 010°08'718.2
2017-Nov-30 22:00N 42°35' E 010°15'1018.3
2017-Nov-30 21:27N 42°28' E 010°25'1318.4
2017-Nov-30 20:45N 42°18' E 010°37'29110.0
2017-Nov-29 15:39N 38°57' E 015°13'418.3
2017-Nov-29 15:27N 38°55' E 015°17'818.1
2017-Nov-29 15:00N 38°49' E 015°23'918.2
2017-Nov-29 14:30N 38°40' E 015°29'1718.0
2017-Nov-29 13:34N 38°26' E 015°39'717.9
2017-Nov-29 13:09N 38°19' E 015°43'317.8
2017-Nov-29 12:59N 38°16' E 015°42'715.2
2017-Nov-29 12:30N 38°12' E 015°34'1 1.6
2017-Nov-29 11:57N 38°12' E 015°33'0 0.0
2017-Nov-29 11:28N 38°12' E 015°33'0 0.0
2017-Nov-29 10:59N 38°12' E 015°33'0 0.0
2017-Nov-29 10:29N 38°12' E 015°33'0 0.0
2017-Nov-29 09:53N 38°12' E 015°33'0 0.0
2017-Nov-29 09:29N 38°12' E 015°33'0 0.0
2017-Nov-29 08:59N 38°12' E 015°33'0 0.0
2017-Nov-29 08:29N 38°12' E 015°33'0 0.0
2017-Nov-29 07:59N 38°12' E 015°33'0 0.0
2017-Nov-29 07:29N 38°12' E 015°33'0 0.0
2017-Nov-29 07:00N 38°12' E 015°33'0 0.0
2017-Nov-29 06:30N 38°12' E 015°33'0 0.0
2017-Nov-29 06:00N 38°12' E 015°33'  

Dump ship's entire track history